createdAt,value
2019-05-01T00:01:00.670Z,52.54
2019-05-01T00:03:51.061Z,53.02
2019-05-01T00:06:26.522Z,53.25
2019-05-01T00:08:57.409Z,53.25
2019-05-01T00:11:28.641Z,53.84
2019-05-01T00:14:00.531Z,54.84
2019-05-01T00:16:31.331Z,54.91
2019-05-01T00:19:04.069Z,54.77
2019-05-01T00:21:34.866Z,54.18
2019-05-01T00:24:06.544Z,54.54
2019-05-01T00:26:40.535Z,54.53
2019-05-01T00:29:11.334Z,54.55
2019-05-01T00:31:42.481Z,54.53
2019-05-01T00:34:13.343Z,55.14
2019-05-01T00:36:46.195Z,55.07
2019-05-01T00:39:18.736Z,54.44
2019-05-01T00:41:49.495Z,55.71
2019-05-01T00:44:21.500Z,56.06
2019-05-01T00:46:52.680Z,56.16
2019-05-01T00:49:23.776Z,55.65
2019-05-01T00:51:54.602Z,56.07
2019-05-01T00:54:25.625Z,56.02
2019-05-01T00:56:58.070Z,56.10
2019-05-01T00:59:40.558Z,56.31
2019-05-01T01:02:12.860Z,56.55
2019-05-01T01:04:44.539Z,56.79
2019-05-01T01:07:15.237Z,56.59
2019-05-01T01:09:46.119Z,56.57
2019-05-01T01:12:16.815Z,56.28
2019-05-01T01:14:47.562Z,55.90
2019-05-01T01:17:20.794Z,56.02
2019-05-01T01:19:51.599Z,56.11
2019-05-01T01:22:22.343Z,56.00
2019-05-01T01:24:54.284Z,56.96
2019-05-01T01:27:25.621Z,57.04
2019-05-01T01:29:56.899Z,56.72
2019-05-01T01:32:27.583Z,58.12
2019-05-01T01:34:58.223Z,57.93
2019-05-01T01:37:28.930Z,58.18
2019-05-01T01:39:59.993Z,58.47
2019-05-01T01:42:31.270Z,59.59
2019-05-01T01:45:04.187Z,58.86
2019-05-01T01:47:35.300Z,60.01
2019-05-01T01:50:07.574Z,59.25
2019-05-01T01:52:38.279Z,59.97
2019-05-01T01:55:09.179Z,59.51
2019-05-01T01:57:40.540Z,59.48
2019-05-01T02:00:12.924Z,59.11
2019-05-01T02:02:45.349Z,59.68
2019-05-01T02:05:17.823Z,59.57
2019-05-01T02:07:49.127Z,58.96
2019-05-01T02:10:19.965Z,59.90
2019-05-01T02:12:50.852Z,60.18
2019-05-01T02:15:21.695Z,60.64
2019-05-01T02:17:53.407Z,60.68
2019-05-01T02:20:27.050Z,60.23
2019-05-01T02:22:57.934Z,60.99
2019-05-01T02:25:29.667Z,62.38
2019-05-01T02:28:19.229Z,63.76
2019-05-01T02:31:07.613Z,61.86
2019-05-01T02:33:40.054Z,62.37
2019-05-01T02:36:12.294Z,64.27
2019-05-01T02:38:45.261Z,64.88
2019-05-01T02:41:17.763Z,63.38
2019-05-01T02:43:51.800Z,63.31
2019-05-01T02:46:25.234Z,64.89
2019-05-01T02:49:00.309Z,65.72
2019-05-01T02:51:32.096Z,67.60
2019-05-01T02:54:03.386Z,64.65
2019-05-01T02:56:47.125Z,63.11
2019-05-01T02:59:18.719Z,61.97
2019-05-01T03:01:50.185Z,64.71
2019-05-01T03:04:21.130Z,66.91
2019-05-01T03:06:52.778Z,67.71
2019-05-01T03:09:24.431Z,66.71
2019-05-01T03:11:57.931Z,65.82
2019-05-01T03:14:31.071Z,68.27
2019-05-01T03:17:03.963Z,66.89
2019-05-01T03:19:37.288Z,66.76
2019-05-01T03:22:12.479Z,69.38
2019-05-01T03:24:43.281Z,68.42
2019-05-01T03:27:14.076Z,70.68
2019-05-01T03:29:44.777Z,70.40
2019-05-01T03:32:19.108Z,68.54
2019-05-01T03:34:52.767Z,69.40
2019-05-01T03:37:22.233Z,69.98
2019-05-01T03:39:53.880Z,74.04
2019-05-01T03:42:25.195Z,74.33
2019-05-01T03:44:56.146Z,72.13
2019-05-01T03:47:27.267Z,72.51
2019-05-01T03:49:59.787Z,72.11
2019-05-01T03:52:30.613Z,73.44
2019-05-01T03:55:01.362Z,72.54
2019-05-01T03:57:32.024Z,72.00
2019-05-01T04:00:05.266Z,71.28
2019-05-01T04:02:37.867Z,70.01
2019-05-01T04:05:08.917Z,69.66
2019-05-01T04:07:41.732Z,71.59
2019-05-01T04:10:12.435Z,72.04
2019-05-01T04:12:43.154Z,72.22
2019-05-01T04:15:14.159Z,71.76
2019-05-01T04:17:49.967Z,71.15
2019-05-01T04:20:21.015Z,71.80
2019-05-01T04:22:52.370Z,71.87
2019-05-01T04:25:23.833Z,71.93
2019-05-01T04:27:58.917Z,72.01
2019-05-01T04:30:47.297Z,71.34
2019-05-01T04:33:19.565Z,69.70
2019-05-01T04:35:52.155Z,68.83
2019-05-01T04:38:22.845Z,67.57
2019-05-01T04:40:54.431Z,67.61
2019-05-01T04:43:26.329Z,65.28
2019-05-01T04:45:57.692Z,63.46
2019-05-01T04:48:29.981Z,62.23
2019-05-01T04:51:00.835Z,61.85
2019-05-01T04:53:31.824Z,61.27
2019-05-01T04:56:02.613Z,61.07
2019-05-01T04:58:33.400Z,59.42
2019-05-01T05:01:04.480Z,59.21
2019-05-01T05:03:35.426Z,58.99
2019-05-01T05:06:06.637Z,58.77
2019-05-01T05:08:38.574Z,59.23
2019-05-01T05:11:11.047Z,58.53
2019-05-01T05:14:00.240Z,58.40
2019-05-01T05:16:48.397Z,58.24
2019-05-01T05:19:19.662Z,57.35
2019-05-01T05:21:52.319Z,56.03
2019-05-01T05:24:23.317Z,54.82
2019-05-01T05:26:54.508Z,54.12
2019-05-01T05:29:25.624Z,52.39
2019-05-01T05:31:59.206Z,53.61
2019-05-01T05:34:30.969Z,53.07
2019-05-01T05:37:04.949Z,52.47
2019-05-01T05:39:41.121Z,52.51
2019-05-01T05:42:12.530Z,51.93
2019-05-01T05:44:44.724Z,51.77
2019-05-01T05:47:15.535Z,51.98
2019-05-01T05:49:47.006Z,52.11
2019-05-01T05:52:19.565Z,51.85
2019-05-01T05:54:53.876Z,51.49
2019-05-01T05:57:29.983Z,49.85
2019-05-01T06:00:08.148Z,50.01
2019-05-01T06:02:42.743Z,48.95
2019-05-01T06:05:21.171Z,48.62
2019-05-01T06:08:11.228Z,47.81
2019-05-01T06:11:03.037Z,47.75
2019-05-01T06:13:52.586Z,48.82
2019-05-01T06:16:42.172Z,48.72
2019-05-01T06:19:27.091Z,47.75
2019-05-01T06:22:16.784Z,47.88
2019-05-01T06:24:58.965Z,47.44
2019-05-01T06:27:31.821Z,47.34
2019-05-01T06:30:06.630Z,47.35
2019-05-01T06:32:35.594Z,47.31
2019-05-01T06:35:07.430Z,46.54
2019-05-01T06:38:00.723Z,47.05
2019-05-01T06:40:39.390Z,47.34
2019-05-01T06:43:20.193Z,46.86
2019-05-01T06:45:53.006Z,47.66
2019-05-01T06:48:28.166Z,46.97
2019-05-01T06:51:18.741Z,46.25
2019-05-01T06:53:50.310Z,47.30
2019-05-01T06:56:21.283Z,48.34
2019-05-01T06:58:55.254Z,48.47
2019-05-01T07:01:25.111Z,47.05
2019-05-01T07:04:03.382Z,46.62
2019-05-01T07:06:31.118Z,47.33
2019-05-01T07:09:02.450Z,44.49
2019-05-01T07:11:35.418Z,38.95
2019-05-01T07:14:06.304Z,34.80
2019-05-01T07:16:37.972Z,31.46
2019-05-01T07:19:10.834Z,29.87
2019-05-01T07:21:43.170Z,26.97
2019-05-01T07:24:14.018Z,23.88
2019-05-01T07:26:48.023Z,24.13
2019-05-01T07:29:19.836Z,22.63
2019-05-01T07:31:50.738Z,24.22
2019-05-01T07:34:29.796Z,24.65
2019-05-01T07:37:01.326Z,22.18
2019-05-01T07:39:32.760Z,22.82
2019-05-01T07:42:21.473Z,20.96
2019-05-01T07:44:54.395Z,20.56
2019-05-01T07:47:33.035Z,21.72
2019-05-01T07:50:07.624Z,21.08
2019-05-01T07:52:39.194Z,19.85
2019-05-01T07:55:12.994Z,17.35
2019-05-01T07:57:44.662Z,17.98
2019-05-01T08:00:36.977Z,18.51
2019-05-01T08:03:07.216Z,18.96
2019-05-01T08:05:40.939Z,18.03
2019-05-01T08:08:11.365Z,17.83
2019-05-01T08:10:42.030Z,18.27
2019-05-01T08:13:12.573Z,18.04
2019-05-01T08:15:45.139Z,18.03
2019-05-01T08:18:32.610Z,17.90
2019-05-01T08:21:05.566Z,17.40
2019-05-01T08:23:37.007Z,18.58
2019-05-01T08:26:08.697Z,18.37
2019-05-01T08:28:56.603Z,18.37
2019-05-01T08:31:35.310Z,16.39
2019-05-01T08:34:07.947Z,17.52
2019-05-01T08:36:42.723Z,18.00
2019-05-01T08:39:13.893Z,18.78
2019-05-01T08:41:44.082Z,19.80
2019-05-01T08:44:14.904Z,17.96
2019-05-01T08:46:59.540Z,18.22
2019-05-01T08:49:41.759Z,17.06
2019-05-01T08:52:13.896Z,16.87
2019-05-01T08:54:43.739Z,16.61
2019-05-01T08:57:15.126Z,17.33
2019-05-01T08:59:45.950Z,18.43
2019-05-01T09:02:16.693Z,18.02
2019-05-01T09:04:47.576Z,17.87
2019-05-01T09:07:19.169Z,17.95
2019-05-01T09:09:50.635Z,15.54
2019-05-01T09:12:21.365Z,17.15
2019-05-01T09:14:52.677Z,14.91
2019-05-01T09:17:24.185Z,16.39
2019-05-01T09:19:54.954Z,16.78
2019-05-01T09:22:25.763Z,17.94
2019-05-01T09:24:59.891Z,17.73
2019-05-01T09:27:34.906Z,18.81
2019-05-01T09:30:15.738Z,17.26
2019-05-01T09:32:54.143Z,15.97
2019-05-01T09:35:20.296Z,15.82
2019-05-01T09:37:51.859Z,15.15
2019-05-01T09:40:22.680Z,16.72
2019-05-01T09:42:54.817Z,15.96
2019-05-01T09:45:26.656Z,16.29
2019-05-01T09:47:57.706Z,16.78
2019-05-01T09:50:31.637Z,17.21
2019-05-01T09:53:08.005Z,14.22
2019-05-01T09:55:40.761Z,14.08
2019-05-01T09:58:11.923Z,15.39
2019-05-01T10:00:42.559Z,16.07
2019-05-01T10:03:16.906Z,14.18
2019-05-01T10:05:46.726Z,16.07
2019-05-01T10:08:17.615Z,15.20
2019-05-01T10:10:51.084Z,15.19
2019-05-01T10:13:24.001Z,13.96
2019-05-01T10:15:54.403Z,13.83
2019-05-01T10:18:25.620Z,15.45
2019-05-01T10:20:56.570Z,15.23
2019-05-01T10:23:27.466Z,14.69
2019-05-01T10:26:00.840Z,14.16
2019-05-01T10:28:38.980Z,16.73
2019-05-01T10:31:12.393Z,15.92
2019-05-01T10:33:45.557Z,15.92
2019-05-01T10:36:20.433Z,16.29
2019-05-01T10:38:50.519Z,16.71
2019-05-01T10:41:21.085Z,17.54
2019-05-01T10:43:52.133Z,17.49
2019-05-01T10:46:22.762Z,16.24
2019-05-01T10:48:53.355Z,16.46
2019-05-01T10:51:24.067Z,16.40
2019-05-01T10:53:54.982Z,17.55
2019-05-01T10:56:26.169Z,17.81
2019-05-01T10:58:57.584Z,17.87
2019-05-01T11:01:46.930Z,16.78
2019-05-01T11:04:18.273Z,21.10
2019-05-01T11:06:49.005Z,22.24
2019-05-01T11:09:20.355Z,22.18
2019-05-01T11:11:51.091Z,21.85
2019-05-01T11:14:22.127Z,21.85
2019-05-01T11:16:52.746Z,22.06
2019-05-01T11:19:23.530Z,21.84
2019-05-01T11:21:54.415Z,22.39
2019-05-01T11:24:25.391Z,22.35
2019-05-01T11:26:59.088Z,22.67
2019-05-01T11:29:29.813Z,23.62
2019-05-01T11:32:02.996Z,23.72
2019-05-01T11:34:35.952Z,23.85
2019-05-01T11:37:20.285Z,25.13
2019-05-01T11:39:59.206Z,24.55
2019-05-01T11:42:30.527Z,23.71
2019-05-01T11:45:02.717Z,23.79
2019-05-01T11:47:33.614Z,25.40
2019-05-01T11:50:06.291Z,27.07
2019-05-01T11:52:37.220Z,25.28
2019-05-01T11:55:08.343Z,25.07
2019-05-01T11:57:39.047Z,25.53
2019-05-01T12:00:14.261Z,27.66
2019-05-01T12:02:44.916Z,28.36
2019-05-01T12:05:15.855Z,30.34
2019-05-01T12:07:46.632Z,30.54
2019-05-01T12:10:17.723Z,31.07
2019-05-01T12:12:48.380Z,31.15
2019-05-01T12:15:20.432Z,31.47
2019-05-01T12:17:51.692Z,29.98
2019-05-01T12:20:23.898Z,28.82
2019-05-01T12:22:54.756Z,29.43
2019-05-01T12:25:25.768Z,28.66
2019-05-01T12:27:57.225Z,29.65
2019-05-01T12:30:28.403Z,27.78
2019-05-01T12:33:00.081Z,30.47
2019-05-01T12:35:31.143Z,29.13
2019-05-01T12:38:03.895Z,28.74
2019-05-01T12:40:34.779Z,29.22
2019-05-01T12:43:05.994Z,29.21
2019-05-01T12:45:36.754Z,30.37
2019-05-01T12:48:07.520Z,29.59
2019-05-01T12:50:38.215Z,31.75
2019-05-01T12:53:11.127Z,32.10
2019-05-01T12:56:02.076Z,31.52
2019-05-01T12:58:33.300Z,29.55
2019-05-01T13:01:04.539Z,29.35
2019-05-01T13:03:35.572Z,31.48
2019-05-01T13:06:06.464Z,31.93
2019-05-01T13:08:37.082Z,31.21
2019-05-01T13:11:07.858Z,32.85
2019-05-01T13:13:39.769Z,33.76
2019-05-01T13:16:10.680Z,34.96
2019-05-01T13:18:41.283Z,33.32
2019-05-01T13:21:12.255Z,31.07
2019-05-01T13:23:43.001Z,30.76
2019-05-01T13:26:15.605Z,31.07
2019-05-01T13:28:48.859Z,31.34
2019-05-01T13:31:21.447Z,32.23
2019-05-01T13:33:52.292Z,33.04
2019-05-01T13:36:23.385Z,33.63
2019-05-01T13:38:54.497Z,33.77
2019-05-01T13:41:25.356Z,33.63
2019-05-01T13:43:56.352Z,33.60
2019-05-01T13:46:28.579Z,35.41
2019-05-01T13:48:59.564Z,35.94
2019-05-01T13:51:30.471Z,36.27
2019-05-01T13:54:01.575Z,36.22
2019-05-01T13:56:33.770Z,39.59
2019-05-01T13:59:06.710Z,47.59
2019-05-01T14:01:37.962Z,59.11
2019-05-01T14:04:09.635Z,58.21
2019-05-01T14:06:40.445Z,64.31
2019-05-01T14:09:13.086Z,66.24
2019-05-01T14:11:44.196Z,67.32
2019-05-01T14:14:14.962Z,64.86
2019-05-01T14:16:46.046Z,66.85
2019-05-01T14:19:17.690Z,63.41
2019-05-01T14:21:50.030Z,62.41
2019-05-01T14:24:29.035Z,63.41
2019-05-01T14:26:59.714Z,62.63
2019-05-01T14:29:30.498Z,54.79
2019-05-01T14:32:02.403Z,54.77
2019-05-01T14:34:33.375Z,52.43
2019-05-01T14:37:04.501Z,51.94
2019-05-01T14:39:35.396Z,50.48
2019-05-01T14:42:06.073Z,50.14
2019-05-01T14:44:37.320Z,51.36
2019-05-01T14:47:08.061Z,51.36
2019-05-01T14:49:38.806Z,49.87
2019-05-01T14:52:09.527Z,50.56
2019-05-01T14:54:40.108Z,50.32
2019-05-01T14:57:10.648Z,49.10
2019-05-01T14:59:41.469Z,47.20
2019-05-01T15:02:12.405Z,46.25
2019-05-01T15:04:43.150Z,45.48
2019-05-01T15:07:14.189Z,44.54
2019-05-01T15:09:45.305Z,44.73
2019-05-01T15:12:16.055Z,44.17
2019-05-01T15:14:55.631Z,44.63
2019-05-01T15:17:29.879Z,45.35
2019-05-01T15:20:05.418Z,44.08
2019-05-01T15:22:37.711Z,42.62
2019-05-01T15:25:08.706Z,43.05
2019-05-01T15:27:39.363Z,41.71
2019-05-01T15:30:12.677Z,42.15
2019-05-01T15:32:43.469Z,42.09
2019-05-01T15:35:14.453Z,42.60
2019-05-01T15:37:56.083Z,42.58
2019-05-01T15:40:19.530Z,42.39
2019-05-01T15:42:52.006Z,42.48
2019-05-01T15:45:23.339Z,43.07
2019-05-01T15:47:54.273Z,43.39
2019-05-01T15:50:25.259Z,42.79
2019-05-01T15:52:56.243Z,43.60
2019-05-01T15:55:27.110Z,43.17
2019-05-01T15:57:57.788Z,44.20
2019-05-01T16:00:29.452Z,43.21
2019-05-01T16:03:00.209Z,43.48
2019-05-01T16:05:31.279Z,43.82
2019-05-01T16:08:09.524Z,43.80
2019-05-01T16:10:36.948Z,42.00
2019-05-01T16:13:08.126Z,38.62
2019-05-01T16:15:39.268Z,37.50
2019-05-01T16:18:11.011Z,38.27
2019-05-01T16:20:41.955Z,36.61
2019-05-01T16:23:12.747Z,37.85
2019-05-01T16:25:43.604Z,37.17
2019-05-01T16:28:15.352Z,38.55
2019-05-01T16:30:46.351Z,37.17
2019-05-01T16:33:17.392Z,37.07
2019-05-01T16:35:48.220Z,37.03
2019-05-01T16:38:22.991Z,37.19
2019-05-01T16:40:59.912Z,37.42
2019-05-01T16:43:31.331Z,37.96
2019-05-01T16:46:02.272Z,37.91
2019-05-01T16:48:33.213Z,38.27
2019-05-01T16:51:06.560Z,37.65
2019-05-01T16:53:38.012Z,37.57
2019-05-01T16:56:08.774Z,37.51
2019-05-01T16:58:40.135Z,36.93
2019-05-01T17:01:13.778Z,38.13
2019-05-01T17:03:59.039Z,38.70
2019-05-01T17:06:37.675Z,38.66
2019-05-01T17:09:28.657Z,39.58
2019-05-01T17:11:59.659Z,39.91
2019-05-01T17:14:30.615Z,41.14
2019-05-01T17:17:01.584Z,41.10
2019-05-01T17:19:33.072Z,41.58
2019-05-01T17:22:04.429Z,42.58
2019-05-01T17:24:35.382Z,43.24
2019-05-01T17:27:06.436Z,44.16
2019-05-01T17:29:37.274Z,45.15
2019-05-01T17:32:11.810Z,45.83
2019-05-01T17:34:43.026Z,45.63
2019-05-01T17:37:14.036Z,46.12
2019-05-01T17:39:45.757Z,46.65
2019-05-01T17:42:18.139Z,46.51
2019-05-01T17:44:48.833Z,47.01
2019-05-01T17:47:22.475Z,46.71
2019-05-01T17:49:52.383Z,46.80
2019-05-01T17:52:25.537Z,46.84
2019-05-01T17:54:56.713Z,47.00
2019-05-01T17:57:27.564Z,46.93
2019-05-01T18:00:00.181Z,47.23
2019-05-01T18:02:41.700Z,47.51
2019-05-01T18:05:17.894Z,47.92
2019-05-01T18:07:48.842Z,47.98
2019-05-01T18:10:20.943Z,48.55
2019-05-01T18:12:53.557Z,48.54
2019-05-01T18:15:24.588Z,48.93
2019-05-01T18:17:55.434Z,49.08
2019-05-01T18:20:26.699Z,49.48
2019-05-01T18:23:12.295Z,49.54
2019-05-01T18:25:48.813Z,49.20
2019-05-01T18:28:40.060Z,49.29
2019-05-01T18:31:15.991Z,48.96
2019-05-01T18:33:48.793Z,48.96
2019-05-01T18:36:24.579Z,48.85
2019-05-01T18:38:59.002Z,49.68
2019-05-01T18:41:38.019Z,49.77
2019-05-01T18:44:10.188Z,50.22
2019-05-01T18:46:41.588Z,51.71
2019-05-01T18:49:13.493Z,52.06
2019-05-01T18:51:44.064Z,51.61
2019-05-01T18:54:15.135Z,52.16
2019-05-01T18:56:45.894Z,52.10
2019-05-01T18:59:19.473Z,52.94
2019-05-01T19:01:50.649Z,52.73
2019-05-01T19:04:24.756Z,51.98
2019-05-01T19:06:55.693Z,52.60
2019-05-01T19:09:30.249Z,53.01
2019-05-01T19:12:01.022Z,53.08
2019-05-01T19:14:32.489Z,53.47
2019-05-01T19:17:03.203Z,53.73
2019-05-01T19:19:34.344Z,53.93
2019-05-01T19:22:06.509Z,54.38
2019-05-01T19:24:40.094Z,54.38
2019-05-01T19:27:14.219Z,55.11
2019-05-01T19:29:44.729Z,55.40
2019-05-01T19:32:17.452Z,55.60
2019-05-01T19:34:49.653Z,55.89
2019-05-01T19:37:21.929Z,56.42
2019-05-01T19:39:55.543Z,56.73
2019-05-01T19:42:26.392Z,57.45
2019-05-01T19:44:57.802Z,57.63
2019-05-01T19:47:29.512Z,58.28
2019-05-01T19:50:06.488Z,58.72
2019-05-01T19:52:37.822Z,58.76
2019-05-01T19:55:08.870Z,59.03
2019-05-01T19:57:40.914Z,59.18
2019-05-01T20:00:13.301Z,59.66
2019-05-01T20:02:45.852Z,59.84
2019-05-01T20:05:17.456Z,60.24
2019-05-01T20:07:51.206Z,61.77
2019-05-01T20:10:22.935Z,62.66
2019-05-01T20:12:53.653Z,61.91
2019-05-01T20:15:27.907Z,61.60
2019-05-01T20:17:59.277Z,61.43
2019-05-01T20:20:30.291Z,61.15
2019-05-01T20:23:01.306Z,61.45
2019-05-01T20:25:32.282Z,61.06
2019-05-01T20:28:04.149Z,61.76
2019-05-01T20:30:35.233Z,61.96
2019-05-01T20:33:08.435Z,62.33
2019-05-01T20:35:40.314Z,62.15
2019-05-01T20:38:11.115Z,62.34
2019-05-01T20:40:43.648Z,62.80
2019-05-01T20:43:15.472Z,62.77
2019-05-01T20:45:49.330Z,62.58
2019-05-01T20:48:23.511Z,63.53
2019-05-01T20:50:52.210Z,63.34
2019-05-01T20:53:23.564Z,63.76
2019-05-01T20:55:58.589Z,63.55
2019-05-01T20:58:29.813Z,64.08
2019-05-01T21:01:02.780Z,64.72
2019-05-01T21:03:33.885Z,64.48
2019-05-01T21:06:07.911Z,63.98
2019-05-01T21:08:46.853Z,64.75
2019-05-01T21:11:19.593Z,64.65
2019-05-01T21:13:50.343Z,64.84
2019-05-01T21:16:21.794Z,65.02
2019-05-01T21:18:52.501Z,64.93
2019-05-01T21:21:24.778Z,64.48
2019-05-01T21:23:56.823Z,64.52
2019-05-01T21:26:28.651Z,64.80
2019-05-01T21:28:59.695Z,65.27
2019-05-01T21:31:31.292Z,65.94
2019-05-01T21:34:04.218Z,66.33
2019-05-01T21:36:36.325Z,66.56
2019-05-01T21:39:08.355Z,66.50
2019-05-01T21:41:39.523Z,66.84
2019-05-01T21:44:10.391Z,66.58
2019-05-01T21:46:43.170Z,67.27
2019-05-01T21:49:14.041Z,67.34
2019-05-01T21:51:46.938Z,67.76
2019-05-01T21:54:20.595Z,67.44
2019-05-01T21:56:51.907Z,67.96
2019-05-01T21:59:22.814Z,68.65
2019-05-01T22:01:54.022Z,68.04
2019-05-01T22:04:28.067Z,68.92
2019-05-01T22:07:01.070Z,68.31
2019-05-01T22:09:32.624Z,69.28
2019-05-01T22:12:03.628Z,68.98
2019-05-01T22:14:37.321Z,69.05
2019-05-01T22:17:27.295Z,69.14
2019-05-01T22:19:57.466Z,69.62
2019-05-01T22:22:44.028Z,69.74
2019-05-01T22:25:14.449Z,69.91
2019-05-01T22:27:47.690Z,69.96
2019-05-01T22:30:23.235Z,70.43
2019-05-01T22:32:55.338Z,71.62
2019-05-01T22:35:33.764Z,71.12
2019-05-01T22:38:06.362Z,71.56
2019-05-01T22:40:39.633Z,71.89
2019-05-01T22:43:10.508Z,72.35
2019-05-01T22:45:41.691Z,71.42
2019-05-01T22:48:12.687Z,72.15
2019-05-01T22:50:43.825Z,71.84
2019-05-01T22:53:14.772Z,72.19
2019-05-01T22:55:45.743Z,72.24
2019-05-01T22:58:17.051Z,72.75
2019-05-01T23:00:50.109Z,72.60
2019-05-01T23:03:40.563Z,72.85
2019-05-01T23:06:10.614Z,72.40
2019-05-01T23:08:42.791Z,73.17
2019-05-01T23:11:20.253Z,73.23
2019-05-01T23:13:47.327Z,73.35
2019-05-01T23:16:21.646Z,73.99
2019-05-01T23:18:53.288Z,74.58
2019-05-01T23:21:24.059Z,74.55
2019-05-01T23:23:56.808Z,75.52
2019-05-01T23:26:27.825Z,76.08
2019-05-01T23:28:58.644Z,77.26
2019-05-01T23:31:29.798Z,77.73
2019-05-01T23:34:01.778Z,77.60
2019-05-01T23:36:34.620Z,77.30
2019-05-01T23:39:06.449Z,76.93
2019-05-01T23:41:45.517Z,76.10
2019-05-01T23:44:11.786Z,76.21
2019-05-01T23:46:43.486Z,75.85
2019-05-01T23:49:14.819Z,75.52
2019-05-01T23:51:45.725Z,75.27
2019-05-01T23:54:16.465Z,75.53
2019-05-01T23:56:47.258Z,75.00
2019-05-01T23:59:17.893Z,75.20
